Los Lunas ASC

2021-01-22 06:55:00

  • imperial
Date Time Air Temperature Relative Humidity Dewpoint Windchill Heat Index Wind Speed Wind Dir. Rain Solar Radiation Soil Temperature
2m 2m 3m 3m 10cm
US/Mountain F % F F F MPH deg in MJ/m^2 F
max avg avg
2021-01-21 07:05:00 31.0 90.9 28.6 31.0 31.0 0.0 0.0 0.0 209.6 0.0 0.00 0.0010000 36.4
2021-01-21 07:10:00 31.0 91.0 28.7 31.0 31.0 0.0 0.0 0.0 200.8 0.0 0.00 0.0010000 36.4
2021-01-21 07:15:00 31.2 90.8 28.9 31.2 31.2 0.0 0.0 0.0 120.1 0.0 0.00 0.0020000 36.4
2021-01-21 07:20:00 30.9 89.7 28.3 30.9 30.9 2.2 2.6 0.8 49.3 51.5 0.00 0.0030000 36.4
2021-01-21 07:25:00 30.7 90.8 28.3 30.7 30.7 0.0 2.2 0.9 62.1 57.3 0.00 0.0070000 36.4
2021-01-21 07:30:00 30.7 90.8 28.4 30.7 30.7 0.0 0.0 0.0 63.5 0.0 0.00 0.0080000 36.4
2021-01-21 07:35:00 30.6 90.3 28.1 30.6 30.6 0.0 0.0 0.0 79.5 0.0 0.00 0.0090000 36.4
2021-01-21 07:40:00 30.6 90.0 28.0 30.6 30.6 0.0 0.0 0.0 107.4 0.0 0.00 0.0110000 36.4
2021-01-21 07:45:00 30.2 90.3 27.8 30.2 30.2 0.0 0.0 0.0 168.0 0.0 0.00 0.0130000 36.4
2021-01-21 07:50:00 30.2 90.9 27.9 30.2 30.2 0.0 0.0 0.0 49.1 0.0 0.00 0.0190000 36.4
2021-01-21 07:55:00 30.3 90.8 28.0 30.3 30.3 0.0 0.0 0.0 49.1 0.0 0.00 0.0340000 36.4
2021-01-21 08:00:00 30.2 91.4 28.0 30.2 30.2 0.0 0.0 0.0 172.4 0.0 0.00 0.0370000 36.4
2021-01-21 08:05:00 30.5 91.7 28.4 30.5 30.5 0.0 0.0 0.0 195.3 0.0 0.00 0.0480000 36.4
2021-01-21 08:10:00 30.7 91.3 28.5 30.7 30.7 0.0 1.2 0.1 323.9 337.4 0.00 0.0400000 36.4
2021-01-21 08:15:00 31.1 90.7 28.7 31.1 31.1 0.0 0.0 0.0 341.5 0.0 0.00 0.0600000 36.4
2021-01-21 08:20:00 31.4 90.2 28.8 31.4 31.4 0.0 0.8 0.0 189.8 335.6 0.00 0.1410000 36.4
2021-01-21 08:25:00 31.8 89.8 29.1 31.8 31.8 0.0 0.0 0.0 341.8 0.0 0.00 0.1140000 36.3
2021-01-21 08:30:00 32.2 89.1 29.4 32.2 32.2 1.2 1.2 0.1 38.7 63.9 0.00 0.1810000 36.3
2021-01-21 08:35:00 33.0 87.7 29.7 33.0 33.0 1.9 3.0 1.8 60.4 47.1 0.00 0.1920000 36.3
2021-01-21 08:40:00 34.1 85.5 30.2 34.1 34.1 0.0 2.2 1.3 321.4 43.5 0.00 0.2060000 36.3
2021-01-21 08:45:00 35.3 81.6 30.2 35.3 35.3 1.9 2.1 1.1 46.0 59.8 0.00 0.2200000 36.3
2021-01-21 08:50:00 35.7 81.3 30.5 35.7 35.7 1.7 4.9 3.3 59.3 50.7 0.00 0.2320000 36.3
2021-01-21 08:55:00 36.2 78.3 30.1 36.2 36.2 2.6 3.8 2.8 67.0 60.7 0.00 0.2450000 36.3
2021-01-21 09:00:00 35.9 77.6 29.6 31.9 35.9 4.7 5.6 4.2 58.9 50.5 0.00 0.2580000 36.3
2021-01-21 09:05:00 36.4 77.1 29.9 33.3 36.4 3.8 5.5 4.4 58.7 45.7 0.00 0.2700000 36.2
2021-01-21 09:10:00 36.6 75.8 29.7 36.6 36.6 2.8 4.9 3.9 64.2 52.0 0.00 0.2820000 36.2
2021-01-21 09:15:00 36.8 76.1 30.0 33.7 36.8 3.8 5.6 4.1 4.1 43.5 0.00 0.2940000 36.2
2021-01-21 09:20:00 37.3 73.6 29.6 34.3 37.3 3.8 4.9 3.9 23.2 39.0 0.00 0.3070000 36.2
2021-01-21 09:25:00 37.7 73.8 30.1 35.2 37.7 3.5 6.2 5.0 59.7 48.6 0.00 0.3220000 36.2
2021-01-21 09:30:00 38.1 71.7 29.8 35.4 38.1 3.7 5.3 4.2 34.0 41.4 0.00 0.3390000 36.2
2021-01-21 09:35:00 38.9 71.4 30.5 34.7 38.9 5.6 5.6 3.8 48.4 38.1 0.00 0.1190000 36.3
2021-01-21 09:40:00 38.8 71.0 30.2 38.8 38.8 3.0 5.6 4.8 48.5 42.8 0.00 0.3820000 36.3
2021-01-21 09:45:00 39.7 69.6 30.6 36.0 39.7 5.1 5.6 4.5 26.6 47.3 0.00 0.3960000 36.3
2021-01-21 09:50:00 40.5 67.0 30.4 36.6 40.5 5.6 6.5 4.8 49.6 46.7 0.00 0.3930000 36.4
2021-01-21 09:55:00 41.2 65.5 30.5 38.4 41.2 4.4 6.2 4.8 41.6 41.0 0.00 0.3900000 36.5
2021-01-21 10:00:00 41.6 66.1 31.1 38.6 41.6 4.6 6.2 4.3 33.9 36.3 0.00 0.4050000 36.6
2021-01-21 10:05:00 42.4 62.7 30.5 39.2 42.4 5.1 6.5 4.7 10.3 34.3 0.00 0.4540000 36.7
2021-01-21 10:10:00 42.7 60.2 29.8 42.7 42.7 3.0 5.8 4.5 7.0 17.4 0.00 0.1400000 36.8
2021-01-21 10:15:00 42.5 62.5 30.6 40.6 42.5 3.5 6.2 4.1 43.8 42.0 0.00 0.4310000 37.0
2021-01-21 10:20:00 43.4 59.6 30.3 41.3 43.4 4.0 4.6 3.4 21.7 28.1 0.00 0.4380000 37.1
2021-01-21 10:25:00 43.6 59.1 30.2 42.2 43.6 3.1 5.3 3.2 53.0 55.3 0.00 0.4520000 37.3
2021-01-21 10:30:00 44.1 59.5 30.9 44.1 44.1 2.6 4.6 3.6 18.1 35.6 0.00 0.4550000 37.4
2021-01-21 10:35:00 45.0 56.4 30.5 42.8 45.0 4.4 6.2 4.1 48.5 27.5 0.00 0.4660000 37.6
2021-01-21 10:40:00 44.5 57.2 30.3 44.5 44.5 1.5 4.9 3.3 24.7 35.6 0.00 0.4670000 37.7
2021-01-21 10:45:00 45.3 56.4 30.7 43.3 45.3 4.2 4.6 3.4 41.8 23.1 0.00 0.4740000 37.9
2021-01-21 10:50:00 45.5 56.6 31.0 42.7 45.5 5.3 6.3 4.1 49.2 32.4 0.00 0.4800000 38.1
2021-01-21 10:55:00 45.9 54.8 30.5 43.5 45.9 4.7 5.3 3.4 59.0 24.4 0.00 0.4880000 38.3
2021-01-21 11:00:00 46.0 56.1 31.2 44.0 46.0 4.4 6.9 5.1 54.9 48.5 0.00 0.4940000 38.4
2021-01-21 11:05:00 46.5 54.9 31.1 45.4 46.5 3.3 6.5 3.7 33.6 34.4 0.00 0.5000000 38.6
2021-01-21 11:10:00 47.7 52.8 31.4 46.3 47.7 3.8 5.8 3.3 268.5 358.4 0.00 0.5070000 38.8
2021-01-21 11:15:00 47.3 54.6 31.8 47.3 47.3 3.0 6.7 3.7 40.7 33.0 0.00 0.5110000 39.0
2021-01-21 11:20:00 47.4 53.7 31.5 47.4 47.4 1.7 7.6 4.3 43.9 47.2 0.00 0.5170000 39.3
2021-01-21 11:25:00 48.8 50.6 31.2 48.8 48.8 1.9 6.2 3.0 44.5 351.1 0.00 0.5220000 39.5
2021-01-21 11:30:00 48.4 50.4 30.8 48.4 48.4 2.4 6.9 4.5 292.1 10.2 0.00 0.5240000 39.7
2021-01-21 11:35:00 48.1 51.9 31.2 46.9 48.1 3.7 6.9 3.9 115.6 49.6 0.00 0.5280000 39.9
2021-01-21 11:40:00 48.3 51.1 31.0 47.6 48.3 3.1 8.0 4.1 48.2 62.6 0.00 0.5330000 40.1
2021-01-21 11:45:00 48.6 50.4 31.0 45.8 48.6 6.3 6.3 4.2 2.7 51.4 0.00 0.5380000 40.3
2021-01-21 11:50:00 49.1 50.2 31.4 46.6 49.1 6.0 6.7 4.7 30.4 38.0 0.00 0.5380000 40.5
2021-01-21 11:55:00 49.7 48.1 30.9 49.7 49.7 2.6 5.1 2.9 345.1 30.0 0.00 0.5420000 40.7
2021-01-21 12:00:00 49.9 47.9 30.9 48.5 49.9 4.2 5.1 3.0 1.2 42.4 0.00 0.5440000 40.9
2021-01-21 12:05:00 49.4 48.9 31.0 48.8 49.4 3.1 6.5 4.9 43.2 28.7 0.00 0.5450000 41.2
2021-01-21 12:10:00 51.1 46.4 31.2 51.1 51.1 1.7 3.7 2.0 66.8 92.4 0.00 0.5460000 41.4
2021-01-21 12:15:00 52.5 46.0 32.3 52.5 52.5 1.3 4.7 2.4 141.6 119.9 0.00 0.5460000 41.6
2021-01-21 12:20:00 52.1 44.7 31.2 52.1 52.1 2.1 3.1 2.1 98.8 87.2 0.00 0.5480000 41.8
2021-01-21 12:25:00 52.8 42.6 30.6 52.8 52.8 3.7 4.2 2.6 52.4 75.6 0.00 0.5500000 42.0
2021-01-21 12:30:00 50.8 45.3 30.3 50.8 50.8 2.2 7.2 4.5 46.2 50.6 0.00 0.5470000 42.2
2021-01-21 12:35:00 51.2 44.2 30.2 51.2 51.2 3.0 5.8 3.6 40.9 46.9 0.00 0.5490000 42.3
2021-01-21 12:40:00 51.4 44.6 30.6 51.4 51.4 1.0 5.1 3.3 64.9 43.4 0.00 0.5460000 42.5
2021-01-21 12:45:00 53.1 41.4 30.2 53.1 53.1 2.6 3.0 1.8 156.6 173.5 0.00 0.5440000 42.8
2021-01-21 12:50:00 54.4 39.8 30.4 54.4 54.4 3.5 4.4 2.3 330.0 349.2 0.00 0.5410000 43.0
2021-01-21 12:55:00 53.9 40.4 30.4 53.9 53.9 1.2 4.6 2.7 198.7 314.5 0.00 0.5400000 43.2
2021-01-21 13:00:00 54.5 39.4 30.3 54.5 54.5 3.1 3.7 2.1 175.0 164.1 0.00 0.5360000 43.4
2021-01-21 13:05:00 53.9 41.1 30.7 53.9 53.9 3.8 4.4 2.4 46.7 322.2 0.00 0.5350000 43.6
2021-01-21 13:10:00 54.8 39.7 30.7 54.8 54.8 2.6 3.8 1.8 239.8 26.8 0.00 0.5320000 43.8
2021-01-21 13:15:00 54.9 39.6 30.8 54.9 54.9 4.0 4.0 2.6 201.7 256.3 0.00 0.5270000 44.0
2021-01-21 13:20:00 53.7 41.3 30.8 53.7 53.7 2.1 6.0 3.5 173.2 205.3 0.00 0.5240000 44.2
2021-01-21 13:25:00 55.0 40.0 31.1 55.0 55.0 0.8 3.5 1.8 68.1 190.4 0.00 0.5160000 44.4
2021-01-21 13:30:00 56.5 37.1 30.5 56.5 56.5 0.0 2.8 1.1 41.5 123.4 0.00 0.5140000 44.6
2021-01-21 13:35:00 55.9 38.5 30.9 55.9 55.9 2.1 4.0 2.7 49.8 70.5 0.00 0.5010000 44.8
2021-01-21 13:40:00 54.8 40.1 31.0 54.8 54.8 1.9 5.5 3.2 90.9 32.1 0.00 0.4980000 45.1
2021-01-21 13:45:00 55.8 37.7 30.4 55.8 55.8 2.4 3.3 2.3 95.2 89.0 0.00 0.4960000 45.3
2021-01-21 13:50:00 56.0 37.0 30.0 56.0 56.0 2.4 3.3 2.1 296.5 59.6 0.00 0.4940000 45.5
2021-01-21 13:55:00 56.5 36.9 30.5 56.5 56.5 1.2 3.1 1.7 132.9 170.2 0.00 0.4890000 45.7
2021-01-21 14:00:00 57.8 35.1 30.4 57.8 57.8 2.8 2.8 0.9 174.0 123.4 0.00 0.4890000 45.9
2021-01-21 14:05:00 55.6 38.2 30.6 55.6 55.6 2.4 5.1 3.7 18.1 33.3 0.00 0.4900000 46.0
2021-01-21 14:10:00 55.5 37.5 30.0 55.5 55.5 2.4 4.4 2.9 149.8 61.8 0.00 0.4630000 46.2
2021-01-21 14:15:00 56.0 36.9 30.0 56.0 56.0 3.5 5.6 3.1 25.5 52.8 0.00 0.4520000 46.4
2021-01-21 14:20:00 56.3 36.2 29.8 56.3 56.3 4.0 4.6 2.8 322.9 0.2 0.00 0.4440000 46.6
2021-01-21 14:25:00 56.1 36.9 30.1 56.1 56.1 2.4 4.0 2.6 29.1 355.3 0.00 0.4380000 46.7
2021-01-21 14:30:00 56.0 36.5 29.8 56.0 56.0 4.6 5.3 3.1 38.0 68.5 0.00 0.4290000 46.9
2021-01-21 14:35:00 56.2 35.9 29.5 56.2 56.2 5.6 8.3 3.9 44.4 37.3 0.00 0.4180000 47.1
2021-01-21 14:40:00 55.5 36.6 29.4 55.5 55.5 5.3 7.2 5.2 50.7 36.5 0.00 0.4090000 47.2
2021-01-21 14:45:00 55.1 37.0 29.3 55.1 55.1 1.3 8.1 5.3 59.4 47.2 0.00 0.1280000 47.4
2021-01-21 14:50:00 56.0 35.9 29.4 56.0 56.0 3.0 6.0 2.6 37.9 27.1 0.00 0.4040000 47.5
2021-01-21 14:55:00 56.6 36.1 30.1 56.6 56.6 2.1 6.3 3.6 1.7 19.3 0.00 0.3720000 47.6
2021-01-21 15:00:00 56.5 35.7 29.6 56.5 56.5 4.7 7.2 5.1 334.9 12.9 0.00 0.3720000 47.7
2021-01-21 15:05:00 56.5 35.4 29.4 56.5 56.5 3.1 4.7 3.0 45.4 13.0 0.00 0.3440000 47.8
2021-01-21 15:10:00 56.5 35.9 29.8 56.5 56.5 3.8 6.7 4.3 20.9 22.2 0.00 0.3360000 47.9
2021-01-21 15:15:00 56.5 34.8 29.0 56.5 56.5 3.0 7.2 3.7 307.8 338.7 0.00 0.3310000 48.0
2021-01-21 15:20:00 56.1 35.9 29.4 56.1 56.1 4.2 6.5 3.6 41.8 34.7 0.00 0.3430000 48.1
2021-01-21 15:25:00 55.5 36.9 29.5 55.5 55.5 5.3 6.2 4.2 20.9 31.2 0.00 0.1350000 48.2
2021-01-21 15:30:00 55.6 36.4 29.4 55.6 55.6 3.1 6.3 3.7 15.4 48.7 0.00 0.3440000 48.2
2021-01-21 15:35:00 56.1 35.3 29.0 56.1 56.1 4.0 5.8 4.2 283.4 27.3 0.00 0.3590000 48.3
2021-01-21 15:40:00 57.1 34.8 29.5 57.1 57.1 1.9 4.6 2.8 35.6 9.4 0.00 0.2610000 48.3
2021-01-21 15:45:00 55.9 36.2 29.5 55.9 55.9 5.6 5.6 3.7 336.0 18.8 0.00 0.1320000 48.4
2021-01-21 15:50:00 55.4 36.8 29.4 55.4 55.4 1.9 6.7 3.6 40.2 25.2 0.00 0.3330000 48.4
2021-01-21 15:55:00 55.7 36.2 29.2 55.7 55.7 1.2 5.5 3.1 258.9 2.3 0.00 0.3230000 48.5
2021-01-21 16:00:00 56.5 36.1 29.9 56.5 56.5 1.9 3.5 2.3 45.5 18.8 0.00 0.0970000 48.5
2021-01-21 16:05:00 55.1 37.6 29.6 55.1 55.1 1.2 4.9 3.0 64.7 46.9 0.00 0.0690000 48.6
2021-01-21 16:10:00 54.6 37.7 29.3 54.6 54.6 2.8 2.8 1.8 42.4 33.7 0.00 0.0690000 48.6
2021-01-21 16:15:00 54.5 38.0 29.4 54.5 54.5 1.2 3.1 1.9 191.2 9.7 0.00 0.0640000 48.7
2021-01-21 16:20:00 54.6 37.7 29.3 54.6 54.6 1.2 2.2 1.0 56.2 59.5 0.00 0.1130000 48.7
2021-01-21 16:25:00 55.0 37.1 29.2 55.0 55.0 3.8 3.8 2.0 43.1 46.9 0.00 0.1890000 48.7
2021-01-21 16:30:00 55.2 37.2 29.5 55.2 55.2 3.8 3.8 2.9 50.8 32.4 0.00 0.0640000 48.7
2021-01-21 16:35:00 55.3 37.2 29.6 55.3 55.3 2.8 4.7 2.9 57.7 43.1 0.00 0.0900000 48.7
2021-01-21 16:40:00 54.9 37.7 29.6 54.9 54.9 3.7 3.8 2.7 48.9 26.8 0.00 0.0600000 48.7
2021-01-21 16:45:00 54.2 38.8 29.6 54.2 54.2 4.4 4.4 3.3 48.2 49.5 0.00 0.0320000 48.7
2021-01-21 16:50:00 53.5 38.9 29.1 53.5 53.5 6.3 8.3 6.2 49.1 45.2 0.00 0.0200000 48.7
2021-01-21 16:55:00 53.6 39.4 29.5 53.6 53.6 4.2 5.3 4.1 57.6 32.8 0.00 0.0180000 48.7
2021-01-21 17:00:00 53.3 39.5 29.3 53.3 53.3 4.2 4.6 3.6 32.5 28.7 0.00 0.0180000 48.7
2021-01-21 17:05:00 53.1 40.0 29.4 53.1 53.1 5.5 6.5 5.4 42.2 42.2 0.00 0.0080000 48.7
2021-01-21 17:10:00 52.3 40.7 29.2 52.3 52.3 3.7 5.1 3.5 13.0 29.6 0.00 0.0070000 48.6
2021-01-21 17:15:00 52.1 42.4 29.9 52.1 52.1 6.0 9.0 5.9 33.8 27.8 0.00 0.0060000 48.6
2021-01-21 17:20:00 51.6 43.1 29.8 51.6 51.6 5.3 8.8 6.1 15.0 21.5 0.00 0.0040000 48.6
2021-01-21 17:25:00 51.5 44.0 30.2 51.5 51.5 3.7 6.5 4.4 37.3 22.6 0.00 0.0030000 48.5
2021-01-21 17:30:00 51.2 44.6 30.3 51.2 51.2 3.0 4.9 3.3 17.1 22.3 0.00 0.0020000 48.5
2021-01-21 17:35:00 50.5 44.9 29.9 50.5 50.5 1.9 3.0 2.2 28.8 34.5 0.00 0.0010000 48.4
2021-01-21 17:40:00 49.8 46.0 29.8 49.8 49.8 1.7 2.2 1.9 35.5 34.7 0.00 0.0010000 48.3
2021-01-21 17:45:00 49.3 47.1 29.9 49.3 49.3 1.9 3.1 1.8 25.1 37.3 0.00 0.0000000 48.3
2021-01-21 17:50:00 48.7 47.4 29.5 48.7 48.7 1.2 2.8 1.8 51.4 36.0 0.00 0.0000000 48.2
2021-01-21 17:55:00 48.1 48.3 29.5 48.1 48.1 2.2 3.0 1.8 54.9 42.4 0.00 0.0000000 48.1
2021-01-21 18:00:00 47.9 48.9 29.6 47.9 47.9 1.0 2.2 1.3 1.9 351.2 0.00 0.0000000 48.1
2021-01-21 18:05:00 47.4 50.2 29.8 47.4 47.4 0.0 1.0 0.1 332.6 9.0 0.00 0.0000000 48.0
2021-01-21 18:10:00 46.4 51.7 29.6 46.4 46.4 0.0 0.8 0.0 259.6 268.8 0.00 0.0000000 47.9
2021-01-21 18:15:00 45.4 52.9 29.3 45.4 45.4 0.0 1.3 0.4 206.5 226.8 0.00 0.0000000 47.8
2021-01-21 18:20:00 44.7 54.1 29.1 44.7 44.7 0.0 0.0 0.0 209.3 0.0 0.00 0.0000000 47.7
2021-01-21 18:25:00 44.4 55.4 29.4 44.4 44.4 1.2 1.3 0.3 166.6 159.9 0.00 0.0000000 47.6
2021-01-21 18:30:00 44.3 56.2 29.7 44.3 44.3 0.8 1.2 0.5 128.6 195.2 0.00 0.0000000 47.5
2021-01-21 18:35:00 44.1 55.6 29.2 44.1 44.1 0.0 0.8 0.0 140.9 140.9 0.00 0.0000000 47.4
2021-01-21 18:40:00 43.9 56.4 29.4 43.9 43.9 0.0 0.8 0.0 94.5 114.5 0.00 0.0000000 47.3
2021-01-21 18:45:00 44.0 56.1 29.3 44.0 44.0 0.0 1.5 0.3 296.3 339.0 0.00 0.0000000 47.2
2021-01-21 18:50:00 43.8 56.6 29.3 43.8 43.8 0.0 0.0 0.0 8.7 0.0 0.00 0.0000000 47.1
2021-01-21 18:55:00 43.9 56.0 29.2 43.9 43.9 0.0 0.0 0.0 56.9 0.0 0.00 0.0000000 47.0
2021-01-21 19:00:00 43.4 57.0 29.2 43.4 43.4 0.0 0.0 0.0 179.4 0.0 0.00 0.0000000 46.8
2021-01-21 19:05:00 42.7 57.8 28.8 42.7 42.7 0.0 0.0 0.0 218.4 0.0 0.00 0.0000000 46.7
2021-01-21 19:10:00 42.4 58.8 29.0 42.4 42.4 0.0 0.0 0.0 220.4 0.0 0.00 0.0000000 46.6
2021-01-21 19:15:00 41.5 58.7 28.1 41.5 41.5 0.0 0.0 0.0 243.1 0.0 0.00 0.0000000 46.5
2021-01-21 19:20:00 40.9 61.7 28.8 40.9 40.9 1.7 2.1 0.5 177.3 179.8 0.00 0.0000000 46.4
2021-01-21 19:25:00 40.2 61.6 28.1 40.2 40.2 0.0 2.1 1.4 271.0 204.9 0.00 0.0000000 46.3
2021-01-21 19:30:00 39.9 62.3 28.0 39.9 39.9 0.0 0.0 0.0 27.7 0.0 0.00 0.0000000 46.2
2021-01-21 19:35:00 39.1 63.4 27.7 39.1 39.1 0.0 0.8 0.0 230.8 271.4 0.00 0.0000000 46.1
2021-01-21 19:40:00 38.7 64.9 27.9 38.7 38.7 0.0 0.0 0.0 132.4 0.0 0.00 0.0000000 46.0
2021-01-21 19:45:00 38.3 64.6 27.4 38.3 38.3 0.0 0.8 0.1 22.6 8.6 0.00 0.0000000 45.9
2021-01-21 19:50:00 37.9 63.8 26.8 37.9 37.9 0.0 1.7 0.5 50.8 53.8 0.00 0.0000000 45.8
2021-01-21 19:55:00 37.5 67.0 27.5 37.5 37.5 0.0 0.0 0.0 246.9 0.0 0.00 0.0000000 45.7
2021-01-21 20:00:00 37.9 65.8 27.5 37.9 37.9 1.0 1.3 0.5 248.1 262.7 0.00 0.0000000 45.6
2021-01-21 20:05:00 37.9 63.1 26.4 37.9 37.9 0.8 0.8 0.1 221.0 236.5 0.00 0.0000000 45.5
2021-01-21 20:10:00 37.4 63.5 26.1 37.4 37.4 0.0 1.2 0.5 111.3 143.7 0.00 0.0000000 45.4
2021-01-21 20:15:00 37.0 67.8 27.4 37.0 37.0 0.0 0.0 0.0 189.3 0.0 0.00 0.0000000 45.3
2021-01-21 20:20:00 37.1 66.6 27.0 37.1 37.1 0.8 1.9 1.0 185.0 183.6 0.00 0.0000000 45.1
2021-01-21 20:25:00 36.7 67.6 26.9 36.7 36.7 1.0 1.0 0.3 206.8 186.0 0.00 0.0000000 45.0
2021-01-21 20:30:00 36.6 67.7 26.9 36.6 36.6 1.2 1.7 1.0 216.6 212.7 0.00 0.0000000 44.9
2021-01-21 20:35:00 36.8 67.6 27.1 36.8 36.8 0.0 1.2 0.2 227.0 204.7 0.00 0.0000000 44.8
2021-01-21 20:40:00 37.1 68.0 27.5 37.1 37.1 0.0 0.8 0.1 251.4 279.1 0.00 0.0000000 44.7
2021-01-21 20:45:00 37.2 66.4 27.0 37.2 37.2 1.3 1.5 0.4 242.9 241.7 0.00 0.0000000 44.6
2021-01-21 20:50:00 36.8 66.9 26.9 36.8 36.8 0.0 1.3 0.3 255.8 245.8 0.00 0.0000000 44.6
2021-01-21 20:55:00 36.4 67.0 26.5 36.4 36.4 0.0 0.0 0.0 246.4 0.0 0.00 0.0000000 44.5
2021-01-21 21:00:00 35.7 68.4 26.3 35.7 35.7 0.0 0.0 0.0 225.5 0.0 0.00 0.0000000 44.4
2021-01-21 21:05:00 35.2 69.2 26.1 35.2 35.2 0.0 1.5 0.3 208.3 206.3 0.00 0.0000000 44.3
2021-01-21 21:10:00 34.6 69.2 25.6 34.6 34.6 2.6 2.6 0.6 51.7 39.5 0.00 0.0000000 44.2
2021-01-21 21:15:00 32.6 69.3 23.6 32.6 32.6 0.0 3.3 1.9 67.4 55.0 0.00 0.0000000 44.1
2021-01-21 21:20:00 32.0 69.9 23.3 32.0 32.0 0.0 1.0 0.2 78.5 76.4 0.00 0.0000000 44.0
2021-01-21 21:25:00 32.1 75.2 25.1 32.1 32.1 0.0 1.2 0.2 27.6 22.0 0.00 0.0000000 43.9
2021-01-21 21:30:00 32.3 75.9 25.6 32.3 32.3 0.0 0.8 0.0 2.3 11.9 0.00 0.0000000 43.9
2021-01-21 21:35:00 32.4 75.6 25.5 32.4 32.4 0.0 0.0 0.0 346.1 0.0 0.00 0.0000000 43.8
2021-01-21 21:40:00 32.3 76.3 25.7 32.3 32.3 0.0 0.0 0.0 346.1 0.0 0.00 0.0000000 43.7
2021-01-21 21:45:00 32.0 76.2 25.4 32.0 32.0 0.0 0.0 0.0 346.1 0.0 0.00 0.0000000 43.6
2021-01-21 21:50:00 31.8 75.6 25.0 31.8 31.8 0.0 0.0 0.0 346.1 0.0 0.00 0.0000000 43.5
2021-01-21 21:55:00 31.4 76.0 24.7 31.4 31.4 0.0 0.0 0.0 346.1 0.0 0.00 0.0000000 43.4
2021-01-21 22:00:00 31.0 76.7 24.6 31.0 31.0 0.0 0.0 0.0 346.1 0.0 0.00 0.0000000 43.3
2021-01-21 22:05:00 30.9 76.4 24.4 30.9 30.9 0.0 0.0 0.0 346.1 0.0 0.00 0.0000000 43.2
2021-01-21 22:10:00 30.7 79.6 25.2 30.7 30.7 0.0 0.0 0.0 295.1 0.0 0.00 0.0000000 43.1
2021-01-21 22:15:00 30.7 75.8 23.9 30.7 30.7 2.2 2.4 1.0 243.1 244.7 0.00 0.0000000 43.0
2021-01-21 22:20:00 30.6 78.7 24.7 30.6 30.6 2.1 2.4 1.7 241.7 233.6 0.00 0.0000000 43.0
2021-01-21 22:25:00 30.6 78.2 24.7 30.6 30.6 0.0 1.9 0.6 231.2 246.7 0.00 0.0000000 42.9
2021-01-21 22:30:00 30.4 77.9 24.3 30.4 30.4 0.0 1.3 0.4 259.4 23.3 0.00 0.0000000 42.8
2021-01-21 22:35:00 30.1 76.0 23.5 30.1 30.1 0.0 1.5 0.5 47.5 55.8 0.00 0.0000000 42.7
2021-01-21 22:40:00 29.7 77.8 23.6 29.7 29.7 0.0 0.0 0.0 254.9 0.0 0.00 0.0000000 42.6
2021-01-21 22:45:00 29.6 78.5 23.7 29.6 29.6 0.0 1.3 0.5 215.3 241.8 0.00 0.0000000 42.5
2021-01-21 22:50:00 29.5 78.8 23.8 29.5 29.5 0.0 0.8 0.0 258.5 239.9 0.00 0.0000000 42.4
2021-01-21 22:55:00 29.4 78.4 23.5 29.4 29.4 0.0 0.0 0.0 216.3 0.0 0.00 0.0000000 42.4
2021-01-21 23:00:00 29.1 77.8 23.1 29.1 29.1 0.0 0.0 0.0 36.8 0.0 0.00 0.0000000 42.3
2021-01-21 23:05:00 28.9 79.6 23.4 28.9 28.9 0.0 1.7 0.3 328.4 25.0 0.00 0.0000000 42.2
2021-01-21 23:10:00 28.7 79.7 23.2 28.7 28.7 0.0 0.8 0.0 346.0 322.7 0.00 0.0000000 42.1
2021-01-21 23:15:00 28.7 79.6 23.2 28.7 28.7 0.0 0.0 0.0 221.4 0.0 0.00 0.0000000 42.0
2021-01-21 23:20:00 28.4 78.7 22.6 28.4 28.4 0.0 1.3 0.4 243.8 238.0 0.00 0.0000000 41.9
2021-01-21 23:25:00 28.1 79.2 22.5 28.1 28.1 0.0 0.0 0.0 242.6 0.0 0.00 0.0000000 41.8
2021-01-21 23:30:00 27.8 80.0 22.5 27.8 27.8 0.0 0.8 0.0 217.9 217.5 0.00 0.0000000 41.8
2021-01-21 23:35:00 27.6 79.9 22.2 27.6 27.6 0.0 0.0 0.0 217.9 0.0 0.00 0.0000000 41.7
2021-01-21 23:40:00 27.5 79.9 22.1 27.5 27.5 0.0 0.0 0.0 268.5 0.0 0.00 0.0000000 41.6
2021-01-21 23:45:00 27.5 80.8 22.4 27.5 27.5 0.0 0.0 0.0 224.4 0.0 0.00 0.0000000 41.5
2021-01-21 23:50:00 27.6 80.9 22.5 27.6 27.6 1.2 1.7 0.8 238.1 237.0 0.00 0.0000000 41.4
2021-01-21 23:55:00 27.5 79.9 22.1 27.5 27.5 1.2 1.7 1.2 229.3 233.1 0.00 0.0000000 41.4
2021-01-22 00:00:00 27.5 80.9 22.4 27.5 27.5 0.0 1.9 1.1 235.2 226.5 0.00 0.0000000 41.3
2021-01-22 00:05:00 27.4 81.1 22.4 27.4 27.4 0.0 1.2 0.2 302.9 330.9 0.00 0.0000000 41.2
2021-01-22 00:10:00 27.4 80.6 22.2 27.4 27.4 0.8 1.3 0.5 242.1 236.3 0.00 0.0000000 41.1
2021-01-22 00:15:00 27.5 80.7 22.3 27.5 27.5 1.3 1.5 0.3 1.0 328.8 0.00 0.0000000 41.0
2021-01-22 00:20:00 27.7 71.7 19.7 23.7 27.7 3.5 3.5 1.1 46.6 319.3 0.00 0.0000000 40.9
2021-01-22 00:25:00 26.3 80.5 21.1 26.3 26.3 0.0 3.1 0.6 272.1 50.5 0.00 0.0000000 40.9
2021-01-22 00:30:00 26.5 80.6 21.3 26.5 26.5 0.0 0.8 0.1 218.0 265.6 0.00 0.0000000 40.8
2021-01-22 00:35:00 26.6 79.8 21.2 26.6 26.6 0.0 0.0 0.0 188.0 0.0 0.00 0.0000000 40.7
2021-01-22 00:40:00 26.4 79.8 21.0 26.4 26.4 0.0 0.0 0.0 107.9 0.0 0.00 0.0000000 40.6
2021-01-22 00:45:00 25.9 76.6 19.6 25.9 25.9 0.0 0.0 0.0 65.7 0.0 0.00 0.0000000 40.6
2021-01-22 00:50:00 24.8 76.9 18.6 24.8 24.8 1.3 1.3 0.3 22.7 43.8 0.00 0.0000000 40.5
2021-01-22 00:55:00 25.1 82.8 20.6 25.1 25.1 0.0 1.3 0.8 27.6 11.6 0.00 0.0000000 40.4
2021-01-22 01:00:00 25.5 81.0 20.5 25.5 25.5 2.1 2.1 1.4 24.4 29.2 0.00 0.0000000 40.3
2021-01-22 01:05:00 25.6 82.7 21.0 25.6 25.6 1.3 2.1 1.0 286.9 289.2 0.00 0.0000000 40.2
2021-01-22 01:10:00 25.8 80.4 20.6 25.8 25.8 0.0 1.5 0.2 286.5 277.4 0.00 0.0000000 40.2
2021-01-22 01:15:00 25.8 78.8 20.2 25.8 25.8 0.0 1.0 0.1 336.5 338.9 0.00 0.0000000 40.1
2021-01-22 01:20:00 25.6 81.0 20.6 25.6 25.6 0.0 0.0 0.0 316.5 0.0 0.00 0.0000000 40.0
2021-01-22 01:25:00 25.6 79.5 20.2 25.6 25.6 0.8 0.8 0.0 335.4 335.4 0.00 0.0000000 40.0
2021-01-22 01:30:00 25.9 81.4 21.0 25.9 25.9 0.0 1.2 0.2 346.7 1.1 0.00 0.0000000 39.9
2021-01-22 01:35:00 26.1 80.4 20.9 26.1 26.1 0.0 0.0 0.0 189.9 0.0 0.00 0.0000000 39.8
2021-01-22 01:40:00 26.3 79.0 20.7 26.3 26.3 1.9 1.9 1.5 184.6 192.7 0.00 0.0000000 39.8
2021-01-22 01:45:00 26.1 79.3 20.5 26.1 26.1 1.0 2.6 1.3 192.1 195.0 0.00 0.0000000 39.7
2021-01-22 01:50:00 26.1 80.1 20.8 26.1 26.1 0.8 2.2 1.6 248.4 211.0 0.00 0.0000000 39.7
2021-01-22 01:55:00 26.2 80.8 21.1 26.2 26.2 1.5 1.7 0.4 44.7 40.3 0.00 0.0000000 39.6
2021-01-22 02:00:00 25.9 80.9 20.9 25.9 25.9 0.8 1.5 0.5 216.2 40.7 0.00 0.0000000 39.5
2021-01-22 02:05:00 25.5 80.9 20.5 25.5 25.5 1.2 1.7 1.3 294.5 234.0 0.00 0.0000000 39.5
2021-01-22 02:10:00 25.8 81.8 21.0 25.8 25.8 1.5 1.9 1.3 212.9 276.4 0.00 0.0000000 39.4
2021-01-22 02:15:00 25.5 82.0 20.8 25.5 25.5 0.8 1.7 1.3 263.5 231.3 0.00 0.0000000 39.4
2021-01-22 02:20:00 25.6 82.8 21.1 25.6 25.6 0.0 0.8 0.0 177.0 272.3 0.00 0.0000000 39.3
2021-01-22 02:25:00 25.3 79.3 19.8 25.3 25.3 2.6 2.8 1.5 53.9 28.9 0.00 0.0000000 39.2
2021-01-22 02:30:00 24.0 81.1 19.1 24.0 24.0 0.0 3.1 1.5 176.1 64.5 0.00 0.0000000 39.2
2021-01-22 02:35:00 24.0 82.1 19.3 24.0 24.0 0.0 0.8 0.1 187.4 142.8 0.00 0.0000000 39.1
2021-01-22 02:40:00 24.0 84.5 20.0 24.0 24.0 2.4 2.4 0.4 9.0 310.3 0.00 0.0000000 39.1
2021-01-22 02:45:00 24.4 83.7 20.2 24.4 24.4 0.0 2.6 1.6 79.0 43.2 0.00 0.0000000 39.0
2021-01-22 02:50:00 24.3 81.8 19.6 24.3 24.3 0.0 1.0 0.2 145.9 51.7 0.00 0.0000000 38.9
2021-01-22 02:55:00 23.8 82.9 19.4 23.8 23.8 2.2 2.2 0.5 191.3 187.3 0.00 0.0000000 38.9
2021-01-22 03:00:00 23.9 83.5 19.7 23.9 23.9 1.3 2.6 2.0 183.2 188.5 0.00 0.0000000 38.8
2021-01-22 03:05:00 24.0 84.0 19.9 24.0 24.0 1.2 1.5 0.9 26.2 355.0 0.00 0.0000000 38.7
2021-01-22 03:10:00 24.1 83.6 19.9 24.1 24.1 0.0 1.2 0.1 6.9 18.8 0.00 0.0000000 38.7
2021-01-22 03:15:00 24.0 84.0 19.9 24.0 24.0 1.3 1.5 0.3 275.3 283.0 0.00 0.0000000 38.6
2021-01-22 03:20:00 24.0 82.3 19.4 24.0 24.0 0.0 1.7 0.6 245.7 255.5 0.00 0.0000000 38.6
2021-01-22 03:25:00 24.0 84.6 20.0 24.0 24.0 1.5 2.1 1.0 228.4 256.8 0.00 0.0000000 38.5
2021-01-22 03:30:00 24.0 86.2 20.5 24.0 24.0 2.1 3.1 1.6 219.0 257.2 0.00 0.0000000 38.4
2021-01-22 03:35:00 23.9 87.0 20.6 23.9 23.9 1.0 2.6 1.5 244.5 254.0 0.00 0.0000000 38.4
2021-01-22 03:40:00 23.7 87.9 20.7 23.7 23.7 3.0 4.4 2.2 237.8 275.2 0.00 0.0000000 38.3
2021-01-22 03:45:00 23.4 86.5 19.9 23.4 23.4 1.3 2.8 1.7 339.1 249.3 0.00 0.0000000 38.2
2021-01-22 03:50:00 23.9 87.8 20.8 23.9 23.9 1.5 2.6 1.6 297.6 254.2 0.00 0.0000000 38.2
2021-01-22 03:55:00 24.4 88.5 21.5 24.4 24.4 2.1 3.1 2.1 220.9 280.9 0.00 0.0000000 38.1
2021-01-22 04:00:00 24.0 86.7 20.6 24.0 24.0 0.0 1.9 0.5 290.2 248.8 0.00 0.0000000 38.1
2021-01-22 04:05:00 23.9 87.4 20.7 23.9 23.9 0.0 1.0 0.2 268.4 287.2 0.00 0.0000000 38.0
2021-01-22 04:10:00 23.5 87.4 20.4 23.5 23.5 0.0 1.0 0.2 241.1 331.4 0.00 0.0000000 37.9
2021-01-22 04:15:00 23.6 88.3 20.7 23.6 23.6 0.0 1.3 0.3 315.1 226.6 0.00 0.0000000 37.9
2021-01-22 04:20:00 23.5 86.1 20.0 23.5 23.5 0.0 0.0 0.0 67.4 0.0 0.00 0.0000000 37.8
2021-01-22 04:25:00 22.9 84.3 18.9 22.9 22.9 0.0 0.0 0.0 155.0 0.0 0.00 0.0000000 37.8
2021-01-22 04:30:00 22.7 85.1 19.0 22.7 22.7 0.0 0.0 0.0 74.7 0.0 0.00 0.0000000 37.7
2021-01-22 04:35:00 22.3 83.7 18.1 22.3 22.3 0.0 0.0 0.0 71.9 0.0 0.00 0.0000000 37.6
2021-01-22 04:40:00 22.4 86.3 18.9 22.4 22.4 0.0 1.2 0.5 166.4 172.2 0.00 0.0000000 37.6
2021-01-22 04:45:00 22.6 86.4 19.1 22.6 22.6 1.3 1.3 0.3 181.3 182.8 0.00 0.0000000 37.5
2021-01-22 04:50:00 22.6 88.2 19.6 22.6 22.6 1.2 1.5 0.4 335.8 333.7 0.00 0.0000000 37.5
2021-01-22 04:55:00 23.0 88.7 20.2 23.0 23.0 0.0 1.3 0.3 313.4 312.9 0.00 0.0000000 37.4
2021-01-22 05:00:00 23.0 86.4 19.5 23.0 23.0 1.7 2.1 0.9 326.2 306.8 0.00 0.0000000 37.4
2021-01-22 05:05:00 23.2 86.4 19.7 23.2 23.2 3.0 3.1 1.6 10.3 312.7 0.00 0.0000000 37.3
2021-01-22 05:10:00 23.0 86.3 19.5 23.0 23.0 0.0 3.1 0.8 255.9 336.2 0.00 0.0000000 37.3
2021-01-22 05:15:00 23.2 86.1 19.7 23.2 23.2 0.0 0.0 0.0 185.6 0.0 0.00 0.0000000 37.2
2021-01-22 05:20:00 23.4 86.3 19.9 23.4 23.4 0.0 1.5 0.8 345.8 227.7 0.00 0.0000000 37.2
2021-01-22 05:25:00 23.5 86.3 20.1 23.5 23.5 1.5 1.5 0.2 24.4 29.5 0.00 0.0000000 37.1
2021-01-22 05:30:00 22.7 83.9 18.6 22.7 22.7 2.2 2.6 0.9 9.7 22.8 0.00 0.0000000 37.1
2021-01-22 05:35:00 22.7 86.4 19.2 22.7 22.7 0.0 1.9 0.4 26.6 2.1 0.00 0.0000000 37.0
2021-01-22 05:40:00 22.5 85.7 18.9 22.5 22.5 0.0 1.7 0.5 45.1 35.3 0.00 0.0000000 37.0
2021-01-22 05:45:00 22.4 85.5 18.8 22.4 22.4 0.0 0.0 0.0 15.4 0.0 0.00 0.0000000 37.0
2021-01-22 05:50:00 22.2 85.7 18.6 22.2 22.2 0.0 0.0 0.0 27.6 0.0 0.00 0.0000000 36.9
2021-01-22 05:55:00 22.2 86.9 18.9 22.2 22.2 0.0 0.0 0.0 27.8 0.0 0.00 0.0000000 36.9
2021-01-22 06:00:00 21.6 85.6 17.9 21.6 21.6 2.1 2.1 0.7 0.0 57.5 0.00 0.0000000 36.8
2021-01-22 06:05:00 21.8 87.9 18.8 21.8 21.8 0.0 2.6 0.8 152.4 17.5 0.00 0.0000000 36.8
2021-01-22 06:10:00 22.0 88.3 19.1 22.0 22.0 0.0 0.0 0.0 236.9 0.0 0.00 0.0000000 36.7
2021-01-22 06:15:00 22.1 88.7 19.3 22.1 22.1 0.0 0.0 0.0 172.3 0.0 0.00 0.0000000 36.7
2021-01-22 06:20:00 22.0 88.2 19.1 22.0 22.0 0.0 0.0 0.0 124.9 0.0 0.00 0.0000000 36.7
2021-01-22 06:25:00 21.5 87.3 18.3 21.5 21.5 0.0 0.0 0.0 68.6 0.0 0.00 0.0000000 36.6
2021-01-22 06:30:00 21.5 88.3 18.6 21.5 21.5 0.0 0.0 0.0 225.5 0.0 0.00 0.0000000 36.5
2021-01-22 06:35:00 21.7 88.8 18.9 21.7 21.7 0.0 0.0 0.0 212.9 0.0 0.00 0.0000000 36.5
2021-01-22 06:40:00 21.5 88.5 18.6 21.5 21.5 0.8 1.2 0.5 291.1 323.9 0.00 0.0000000 36.4
2021-01-22 06:45:00 21.7 88.2 18.7 21.7 21.7 0.0 0.0 0.0 242.8 0.0 0.00 0.0000000 36.4
2021-01-22 06:50:00 21.6 87.9 18.6 21.6 21.6 0.0 1.0 0.4 221.2 216.4 0.00 0.0000000 36.3
2021-01-22 06:55:00 21.2 87.9 18.2 21.2 21.2 1.2 1.2 0.1 209.0 215.0 0.00 0.0000000 36.3

Data is courtesy of the NM Climate Center. DO NOT USE IN LEGAL PROCEEDINGS.